createdAt,value
2022-09-06T00:01:18.593Z,18.80
2022-09-06T00:06:20.626Z,18.80
2022-09-06T00:11:22.479Z,18.80
2022-09-06T00:16:29.704Z,18.80
2022-09-06T00:21:32.287Z,18.70
2022-09-06T00:26:33.934Z,18.70
2022-09-06T00:31:35.693Z,18.70
2022-09-06T00:36:37.436Z,18.70
2022-09-06T00:41:39.488Z,18.60
2022-09-06T00:46:46.093Z,18.60
2022-09-06T00:51:47.754Z,18.70
2022-09-06T00:56:50.275Z,18.60
2022-09-06T01:01:52.378Z,18.60
2022-09-06T01:06:59.743Z,18.60
2022-09-06T01:12:22.737Z,18.50
2022-09-06T01:17:52.567Z,18.50
2022-09-06T01:23:21.611Z,18.50
2022-09-06T01:28:35.402Z,18.60
2022-09-06T01:33:46.059Z,18.50
2022-09-06T01:38:47.700Z,18.50
2022-09-06T01:43:51.688Z,18.50
2022-09-06T01:49:27.435Z,18.60
2022-09-06T01:54:47.282Z,18.50
2022-09-06T02:00:00.651Z,18.40
2022-09-06T02:05:09.285Z,18.40
2022-09-06T02:10:21.500Z,18.40
2022-09-06T02:15:27.223Z,18.40
2022-09-06T02:20:36.041Z,18.30
2022-09-06T02:25:41.538Z,18.60
2022-09-06T02:30:47.546Z,19.00
2022-09-06T02:35:53.625Z,19.20
2022-09-06T02:40:56.735Z,19.30
2022-09-06T02:45:58.396Z,19.40
2022-09-06T02:51:08.305Z,19.50
2022-09-06T02:56:10.290Z,19.50
2022-09-06T03:01:12.478Z,19.60
2022-09-06T03:06:14.261Z,19.80
2022-09-06T03:11:15.930Z,19.80
2022-09-06T03:16:18.006Z,19.80
2022-09-06T03:21:19.649Z,19.80
2022-09-06T03:26:21.391Z,19.80
2022-09-06T03:31:23.072Z,19.80
2022-09-06T03:36:24.706Z,19.80
2022-09-06T03:41:26.339Z,19.80
2022-09-06T03:46:30.664Z,19.70
2022-09-06T03:51:32.273Z,19.60
2022-09-06T03:56:33.959Z,19.60
2022-09-06T04:01:35.633Z,19.50
2022-09-06T04:06:37.302Z,19.50
2022-09-06T04:11:39.003Z,19.50
2022-09-06T04:16:40.761Z,19.40
2022-09-06T04:21:42.583Z,19.40
2022-09-06T04:26:44.213Z,19.40
2022-09-06T04:31:45.963Z,19.30
2022-09-06T04:36:48.421Z,19.30
2022-09-06T04:41:50.272Z,19.30
2022-09-06T04:47:09.486Z,19.30
2022-09-06T04:52:12.315Z,19.30
2022-09-06T04:57:14.114Z,19.20
2022-09-06T05:02:15.779Z,19.10
2022-09-06T05:12:44.404Z,19.00
2022-09-06T05:17:46.241Z,18.90
2022-09-06T05:22:57.019Z,18.80
2022-09-06T05:27:58.671Z,18.70
2022-09-06T05:33:00.351Z,18.60
2022-09-06T05:38:02.097Z,18.50
2022-09-06T05:43:03.759Z,18.50
2022-09-06T05:48:05.471Z,18.50
2022-09-06T05:53:07.302Z,18.50
2022-09-06T05:58:09.135Z,18.50
2022-09-06T06:03:10.767Z,18.60
2022-09-06T06:08:12.398Z,18.70
2022-09-06T06:13:14.033Z,18.80
2022-09-06T06:18:15.658Z,18.90
2022-09-06T06:23:17.388Z,19.10
2022-09-06T06:28:19.135Z,19.20
2022-09-06T06:33:21.069Z,19.40
2022-09-06T06:38:22.686Z,19.50
2022-09-06T06:43:24.423Z,19.70
2022-09-06T06:48:26.100Z,19.80
2022-09-06T06:53:27.870Z,20.00
2022-09-06T06:58:30.972Z,20.10
2022-09-06T07:03:32.609Z,20.30
2022-09-06T07:08:37.045Z,20.40
2022-09-06T07:13:38.734Z,20.60
2022-09-06T07:18:42.228Z,20.70
2022-09-06T07:29:06.941Z,21.10
2022-09-06T07:34:08.582Z,21.30
2022-09-06T07:39:10.213Z,21.50
2022-09-06T07:44:11.948Z,21.60
2022-09-06T07:49:13.703Z,21.80
2022-09-06T07:54:31.877Z,21.80
2022-09-06T07:59:33.567Z,22.00
2022-09-06T08:04:35.310Z,22.10
2022-09-06T08:09:37.075Z,22.30
2022-09-06T08:14:38.771Z,22.40
2022-09-06T08:19:40.533Z,22.60
2022-09-06T08:24:42.162Z,22.70
2022-09-06T08:29:43.794Z,22.80
2022-09-06T08:34:45.729Z,22.90
2022-09-06T08:39:47.383Z,22.90
2022-09-06T08:50:06.359Z,23.20
2022-09-06T08:55:37.567Z,23.30
2022-09-06T09:00:41.449Z,23.50
2022-09-06T09:05:46.838Z,23.70
2022-09-06T09:10:52.015Z,23.70
2022-09-06T09:15:53.920Z,24.00
2022-09-06T09:20:56.214Z,24.10
2022-09-06T09:26:05.168Z,24.30
2022-09-06T09:31:07.463Z,24.40
2022-09-06T09:36:12.959Z,24.40
2022-09-06T09:41:33.319Z,24.60
2022-09-06T09:46:37.286Z,24.90
2022-09-06T09:52:03.640Z,25.00
2022-09-06T09:57:12.017Z,25.00
2022-09-06T10:02:33.346Z,25.10
2022-09-06T10:07:41.479Z,25.30
2022-09-06T10:12:43.359Z,25.60
2022-09-06T10:17:49.335Z,25.60
2022-09-06T10:23:07.627Z,25.90
2022-09-06T10:28:29.942Z,25.90
2022-09-06T10:34:00.729Z,26.20
2022-09-06T10:39:38.303Z,26.50
2022-09-06T10:45:21.664Z,26.70
2022-09-06T10:50:47.583Z,26.90
2022-09-06T10:56:02.774Z,27.10
2022-09-06T11:01:07.479Z,27.10
2022-09-06T11:06:11.123Z,27.00
2022-09-06T11:11:44.498Z,27.20
2022-09-06T11:16:53.798Z,27.50
2022-09-06T11:22:12.040Z,27.60
2022-09-06T11:27:19.483Z,27.60
2022-09-06T11:32:58.885Z,27.60
2022-09-06T11:38:04.208Z,27.70
2022-09-06T11:43:05.786Z,27.80
2022-09-06T11:48:59.579Z,28.10
2022-09-06T11:54:16.956Z,28.10
2022-09-06T11:59:24.469Z,28.20
2022-09-06T12:05:01.532Z,28.40
2022-09-06T12:10:30.777Z,28.50
2022-09-06T12:15:51.741Z,28.80
2022-09-06T12:20:54.341Z,28.90
2022-09-06T12:25:57.016Z,28.90
2022-09-06T12:30:58.772Z,29.00
2022-09-06T12:36:22.672Z,29.20
2022-09-06T12:41:26.833Z,29.00
2022-09-06T12:46:30.002Z,29.10
2022-09-06T12:51:32.049Z,29.30
2022-09-06T12:56:34.895Z,29.30
2022-09-06T13:01:37.570Z,29.50
2022-09-06T13:06:45.643Z,29.50
2022-09-06T13:11:51.999Z,29.50
2022-09-06T13:16:57.915Z,29.60
2022-09-06T13:22:00.797Z,29.80
2022-09-06T13:27:30.262Z,29.90
2022-09-06T13:32:32.235Z,30.00
2022-09-06T13:37:36.188Z,30.10
2022-09-06T13:42:38.166Z,30.20
2022-09-06T13:47:39.779Z,30.10
2022-09-06T13:52:41.497Z,30.20
2022-09-06T13:57:43.592Z,30.20
2022-09-06T14:02:46.635Z,30.50
2022-09-06T14:07:48.302Z,30.80
2022-09-06T14:12:50.284Z,30.90
2022-09-06T14:17:52.162Z,31.20
2022-09-06T14:22:53.794Z,31.50
2022-09-06T14:27:55.570Z,31.40
2022-09-06T14:32:57.460Z,31.80
2022-09-06T14:37:59.366Z,31.80
2022-09-06T14:43:01.065Z,31.90
2022-09-06T14:48:03.363Z,32.60
2022-09-06T14:53:15.044Z,32.60
2022-09-06T14:58:26.009Z,32.80
2022-09-06T15:03:27.722Z,32.30
2022-09-06T15:08:29.653Z,32.40
2022-09-06T15:13:31.338Z,31.70
2022-09-06T15:18:33.646Z,31.30
2022-09-06T15:23:35.338Z,30.80
2022-09-06T15:28:38.959Z,30.60
2022-09-06T15:33:41.273Z,30.30
2022-09-06T15:38:46.751Z,30.00
2022-09-06T15:43:50.440Z,29.80
2022-09-06T15:48:53.682Z,29.70
2022-09-06T15:53:55.769Z,29.40
2022-09-06T15:58:57.483Z,29.30
2022-09-06T16:04:03.660Z,29.10
2022-09-06T16:09:13.619Z,29.00
2022-09-06T16:14:16.404Z,28.90
2022-09-06T16:19:18.032Z,28.80
2022-09-06T16:24:21.235Z,28.60
2022-09-06T16:29:22.902Z,28.40
2022-09-06T16:34:24.658Z,28.10
2022-09-06T16:39:26.457Z,27.90
2022-09-06T16:44:28.592Z,27.70
2022-09-06T16:49:30.404Z,27.50
2022-09-06T16:54:35.595Z,27.30
2022-09-06T16:59:37.525Z,27.20
2022-09-06T17:04:39.159Z,27.00
2022-09-06T17:09:40.797Z,26.60
2022-09-06T17:14:43.083Z,26.20
2022-09-06T17:19:44.740Z,25.70
2022-09-06T17:24:46.398Z,25.10
2022-09-06T17:29:48.189Z,24.10
2022-09-06T17:34:50.194Z,23.40
2022-09-06T17:39:51.954Z,23.00
2022-09-06T17:44:53.761Z,22.60
2022-09-06T17:49:55.387Z,22.30
2022-09-06T17:54:57.003Z,22.00
2022-09-06T17:59:58.738Z,21.40
2022-09-06T18:05:00.460Z,21.00
2022-09-06T18:10:02.131Z,20.70
2022-09-06T18:15:03.940Z,20.60
2022-09-06T18:20:06.358Z,20.60
2022-09-06T18:25:08.848Z,20.60
2022-09-06T18:30:14.724Z,20.50
2022-09-06T18:35:16.768Z,20.30
2022-09-06T18:40:18.403Z,20.10
2022-09-06T18:45:20.047Z,20.00
2022-09-06T18:50:22.793Z,19.90
2022-09-06T18:55:24.536Z,19.60
2022-09-06T19:00:26.510Z,19.70
2022-09-06T19:05:28.217Z,19.60
2022-09-06T19:10:30.324Z,19.60
2022-09-06T19:15:31.948Z,19.50
2022-09-06T19:20:33.592Z,19.50
2022-09-06T19:25:35.265Z,19.40
2022-09-06T19:30:36.908Z,19.40
2022-09-06T19:35:47.134Z,19.30
2022-09-06T19:41:09.289Z,19.20
2022-09-06T19:46:12.085Z,19.20
2022-09-06T19:51:15.623Z,19.20
2022-09-06T19:56:19.573Z,19.10
2022-09-06T20:01:22.031Z,19.10
2022-09-06T20:06:24.348Z,19.10
2022-09-06T20:11:29.059Z,19.10
2022-09-06T20:16:30.875Z,19.00
2022-09-06T20:21:32.767Z,18.90
2022-09-06T20:26:35.499Z,18.90
2022-09-06T20:31:38.015Z,18.90
2022-09-06T20:36:39.743Z,18.80
2022-09-06T20:41:41.432Z,18.80
2022-09-06T20:46:43.130Z,18.80
2022-09-06T20:51:45.002Z,18.70
2022-09-06T20:56:46.668Z,18.70
2022-09-06T21:01:48.352Z,18.60
2022-09-06T21:06:50.924Z,18.60
2022-09-06T21:11:53.215Z,18.60
2022-09-06T21:16:54.883Z,18.60
2022-09-06T21:21:56.484Z,18.40
2022-09-06T21:26:58.116Z,18.50
2022-09-06T21:31:59.839Z,18.40
2022-09-06T21:37:01.561Z,18.30
2022-09-06T21:42:03.265Z,18.30
2022-09-06T21:47:05.637Z,18.20
2022-09-06T21:52:08.536Z,18.10
2022-09-06T21:57:10.271Z,18.00
2022-09-06T22:02:12.004Z,17.90
2022-09-06T22:07:13.683Z,17.90
2022-09-06T22:12:15.322Z,17.90
2022-09-06T22:17:16.989Z,18.00
2022-09-06T22:22:18.835Z,18.00
2022-09-06T22:27:20.468Z,17.90
2022-09-06T22:32:23.027Z,17.90
2022-09-06T22:37:24.737Z,17.80
2022-09-06T22:42:26.810Z,17.80
2022-09-06T22:47:28.514Z,17.80
2022-09-06T22:52:30.160Z,17.80
2022-09-06T22:57:31.807Z,17.70
2022-09-06T23:02:33.851Z,17.70
2022-09-06T23:07:35.552Z,17.70
2022-09-06T23:12:37.527Z,17.60
2022-09-06T23:17:39.174Z,17.70
2022-09-06T23:22:41.438Z,17.60
2022-09-06T23:27:43.130Z,17.50
2022-09-06T23:32:44.878Z,17.50
2022-09-06T23:37:49.930Z,17.50
2022-09-06T23:42:51.680Z,17.60
2022-09-06T23:47:53.349Z,17.60
2022-09-06T23:52:55.111Z,17.60
2022-09-06T23:57:56.802Z,17.60
